Time;durP1;ratioP1;P1;durP2;ratioP2;P2;SDS_P1;SDS_P2;PMS_P1;PMS_P2;Temp;Humidity;BMP_temperature;BMP_pressure;BME280_temperature;BME280_humidity;BME280_pressure;Samples;Min_cycle;Max_cycle;Signal;HPM_P1;HPM_P2
2022/10/11 00:00:47;;;;;;;27.20;2.53;;;8.60;99.90;;;;;;4987824;28;20399;-58
2022/10/11 00:03:13;;;;;;;18.35;2.65;;;8.60;99.90;;;;;;4988690;28;20061;-61
2022/10/11 00:05:39;;;;;;;31.15;2.60;;;8.60;99.90;;;;;;4985538;28;20042;-60
2022/10/11 00:08:05;;;;;;;14.93;2.00;;;8.50;99.90;;;;;;4988107;28;20026;-58
2022/10/11 00:10:31;;;;;;;19.42;3.85;;;8.60;99.90;;;;;;4989877;28;20097;-55
2022/10/11 00:12:57;;;;;;;16.10;2.25;;;8.60;99.90;;;;;;4992563;28;20539;-56
2022/10/11 00:15:24;;;;;;;15.63;3.28;;;8.60;99.90;;;;;;4987215;28;20046;-59
2022/10/11 00:17:49;;;;;;;13.00;2.28;;;8.50;99.90;;;;;;4988964;28;20404;-58
2022/10/11 00:20:15;;;;;;;16.58;1.85;;;8.50;99.90;;;;;;4989445;28;20041;-58
2022/10/11 00:22:41;;;;;;;11.15;2.03;;;8.40;99.90;;;;;;5017154;22;20136;-67
2022/10/11 00:25:08;;;;;;;14.98;2.85;;;8.50;99.90;;;;;;5027145;28;20040;-68
2022/10/11 00:27:35;;;;;;;10.23;1.88;;;8.40;99.90;;;;;;5024919;28;20392;-68
2022/10/11 00:30:00;;;;;;;9.45;2.38;;;8.40;99.90;;;;;;5025956;28;20032;-67
2022/10/11 00:32:26;;;;;;;14.95;2.85;;;8.40;99.90;;;;;;5020156;28;20037;-65
2022/10/11 00:34:52;;;;;;;19.20;2.63;;;8.30;99.90;;;;;;5029936;28;20025;-67
2022/10/11 00:37:19;;;;;;;23.02;2.17;;;8.30;99.90;;;;;;5029715;28;20040;-67
2022/10/11 00:39:44;;;;;;;13.77;2.17;;;8.20;99.90;;;;;;5027004;28;20529;-68
2022/10/11 00:42:14;;;;;;;15.40;2.15;;;8.20;99.90;;;;;;5027732;28;20029;-65
2022/10/11 00:44:48;;;;;;;13.13;2.30;;;8.20;99.90;;;;;;5017632;28;20515;-64
2022/10/11 00:47:20;;;;;;;12.35;1.92;;;8.30;99.90;;;;;;5029388;28;20021;-68
2022/10/11 00:49:57;;;;;;;19.65;1.90;;;8.30;99.90;;;;;;5016785;28;20026;-66
2022/10/11 00:52:31;;;;;;;18.98;2.67;;;8.20;99.90;;;;;;5027622;28;20620;-67
2022/10/11 00:55:01;;;;;;;14.73;1.88;;;8.10;99.90;;;;;;5026511;28;20037;-65
2022/10/11 00:57:30;;;;;;;11.48;2.03;;;8.00;99.90;;;;;;5027154;28;20525;-67
2022/10/11 00:59:56;;;;;;;8.43;1.50;;;7.90;99.90;;;;;;5023984;28;20086;-66
2022/10/11 01:02:22;;;;;;;13.85;2.03;;;7.90;99.90;;;;;;5027793;28;20040;-68
2022/10/11 01:04:49;;;;;;;14.35;1.70;;;7.90;99.90;;;;;;5027308;28;20032;-67
2022/10/11 01:07:17;;;;;;;23.65;2.28;;;7.80;99.90;;;;;;5028443;28;20033;-67
2022/10/11 01:09:43;;;;;;;12.80;2.45;;;7.80;99.90;;;;;;5028121;28;20033;-67
2022/10/11 01:12:17;;;;;;;12.88;3.22;;;7.70;99.90;;;;;;5027720;28;20391;-67
2022/10/11 01:14:57;;;;;;;12.40;2.30;;;7.70;99.90;;;;;;5021751;28;20025;-66
2022/10/11 01:17:43;;;;;;;13.68;2.60;;;7.70;99.90;;;;;;5025608;28;20045;-68
2022/10/11 01:20:11;;;;;;;16.98;2.08;;;7.70;99.90;;;;;;5027492;28;20030;-67
2022/10/11 01:22:52;;;;;;;12.73;2.72;;;7.70;99.90;;;;;;5026016;28;20143;-68
2022/10/11 01:26:05;;;;;;;21.15;2.50;;;7.80;99.90;;;;;;5024580;28;20053;-68
2022/10/11 01:28:33;;;;;;;13.85;2.13;;;7.90;99.90;;;;;;5018820;28;20538;-67
2022/10/11 01:31:23;;;;;;;13.95;1.77;;;7.90;99.90;;;;;;5025704;28;20021;-67
2022/10/11 01:33:57;;;;;;;9.43;1.92;;;7.70;99.90;;;;;;5027962;28;20087;-67
2022/10/11 01:36:35;;;;;;;14.30;2.42;;;7.70;99.90;;;;;;5025265;28;20041;-67
2022/10/11 01:39:37;;;;;;;10.13;1.65;;;7.60;99.90;;;;;;5029559;28;20127;-67
2022/10/11 01:42:06;;;;;;;14.30;2.50;;;7.60;99.90;;;;;;5021657;28;20126;-68
2022/10/11 01:44:34;;;;;;;11.45;3.30;;;7.60;99.90;;;;;;5022492;28;20086;-66
2022/10/11 01:46:59;;;;;;;9.88;2.22;;;7.50;99.90;;;;;;5023739;28;20022;-66
2022/10/11 01:49:25;;;;;;;16.50;2.63;;;7.40;99.90;;;;;;5026664;28;20039;-67
2022/10/11 01:51:53;;;;;;;12.05;2.03;;;7.40;99.90;;;;;;5029269;28;20018;-67
2022/10/11 01:54:48;;;;;;;19.83;2.60;;;7.40;99.90;;;;;;5027988;28;20026;-66
2022/10/11 01:57:46;;;;;;;9.18;1.75;;;7.50;99.90;;;;;;5022224;28;20048;-67
2022/10/11 02:00:14;;;;;;;12.82;1.90;;;7.50;99.90;;;;;;5018469;28;20167;-67
2022/10/11 02:02:57;;;;;;;16.90;1.92;;;7.50;99.90;;;;;;5029164;28;20017;-65
2022/10/11 02:05:25;;;;;;;7.13;1.80;;;7.50;99.90;;;;;;5025531;28;20033;-66
2022/10/11 02:08:06;;;;;;;11.63;1.45;;;7.60;99.90;;;;;;5028880;28;20030;-67
2022/10/11 02:10:38;;;;;;;11.48;2.55;;;7.60;99.90;;;;;;5027914;28;20064;-66
2022/10/11 02:13:31;;;;;;;9.35;2.50;;;7.50;99.90;;;;;;5018881;28;20017;-66
2022/10/11 02:16:01;;;;;;;19.33;3.17;;;7.40;99.90;;;;;;5025348;28;20096;-67
2022/10/11 02:18:33;;;;;;;12.98;2.20;;;7.40;99.90;;;;;;5026687;28;20092;-67
2022/10/11 02:21:01;;;;;;;14.95;2.00;;;7.40;99.90;;;;;;5026707;28;20052;-67
2022/10/11 02:23:31;;;;;;;10.90;1.60;;;7.40;99.90;;;;;;5026280;28;20064;-66
2022/10/11 02:25:58;;;;;;;21.05;2.15;;;7.40;99.90;;;;;;5026138;28;20052;-67
2022/10/11 02:28:28;;;;;;;9.05;2.33;;;7.40;99.90;;;;;;5023225;28;20057;-66
2022/10/11 02:30:57;;;;;;;8.77;2.13;;;7.20;99.90;;;;;;5030886;28;20033;-67
2022/10/11 02:33:30;;;;;;;7.88;2.10;;;7.10;99.90;;;;;;5030479;28;20095;-66
2022/10/11 02:36:06;;;;;;;14.50;2.22;;;7.10;99.90;;;;;;5028800;28;20025;-66
2022/10/11 02:38:38;;;;;;;11.68;2.10;;;7.00;99.90;;;;;;5032363;28;20069;-66
2022/10/11 02:41:12;;;;;;;12.23;3.30;;;7.00;99.90;;;;;;5026103;28;20083;-67
2022/10/11 02:43:45;;;;;;;6.82;2.63;;;7.10;99.90;;;;;;5024333;28;20983;-67
2022/10/11 02:46:12;;;;;;;11.30;2.22;;;7.10;99.90;;;;;;5029218;28;20041;-66
2022/10/11 02:48:38;;;;;;;20.25;3.80;;;7.20;99.90;;;;;;5027809;28;20383;-67
2022/10/11 02:51:04;;;;;;;9.25;2.80;;;7.20;99.90;;;;;;5028317;28;20018;-67
2022/10/11 02:53:30;;;;;;;7.20;2.30;;;7.20;99.90;;;;;;5025601;28;20025;-66
2022/10/11 02:55:56;;;;;;;13.15;2.33;;;7.20;99.90;;;;;;5025105;28;20119;-66
2022/10/11 02:58:22;;;;;;;9.63;2.03;;;7.30;99.90;;;;;;5027427;28;20033;-66
2022/10/11 03:00:48;;;;;;;7.20;2.20;;;7.30;99.90;;;;;;5029201;28;20512;-66
2022/10/11 03:03:14;;;;;;;18.50;2.40;;;7.30;99.90;;;;;;5027599;28;20113;-67
2022/10/11 03:05:40;;;;;;;10.23;2.20;;;7.30;99.90;;;;;;5027482;28;20088;-67
2022/10/11 03:08:07;;;;;;;15.13;3.00;;;7.20;99.90;;;;;;5027248;28;20026;-67
2022/10/11 03:10:33;;;;;;;12.98;2.65;;;7.20;99.90;;;;;;5029946;28;20982;-67
2022/10/11 03:12:59;;;;;;;10.93;2.67;;;7.30;99.90;;;;;;5028889;28;20395;-67
2022/10/11 03:15:25;;;;;;;9.73;2.33;;;7.30;99.90;;;;;;5028414;28;20643;-67
2022/10/11 03:17:50;;;;;;;11.95;3.10;;;7.20;99.90;;;;;;5030440;28;20033;-67
2022/10/11 03:20:16;;;;;;;20.80;2.15;;;7.20;99.90;;;;;;5024982;28;20029;-67
2022/10/11 03:22:42;;;;;;;21.77;3.42;;;7.00;99.90;;;;;;5029425;28;20041;-66
2022/10/11 03:25:08;;;;;;;10.07;2.30;;;6.90;99.90;;;;;;5030131;28;20096;-66
2022/10/11 03:27:33;;;;;;;11.48;2.50;;;6.90;99.90;;;;;;5029441;28;20033;-67
2022/10/11 03:29:59;;;;;;;14.48;2.25;;;6.90;99.90;;;;;;5027286;28;20025;-66
2022/10/11 03:32:25;;;;;;;12.38;2.97;;;6.80;99.90;;;;;;5034082;28;20038;-66
2022/10/11 03:34:50;;;;;;;11.23;3.60;;;6.80;99.90;;;;;;5033682;28;20032;-68
2022/10/11 03:37:16;;;;;;;21.15;5.03;;;6.80;99.90;;;;;;5031690;28;20124;-67
2022/10/11 03:39:42;;;;;;;13.73;3.20;;;6.80;99.90;;;;;;5029863;28;20031;-67
2022/10/11 03:42:07;;;;;;;27.02;5.47;;;6.80;99.90;;;;;;5031505;28;20033;-67
2022/10/11 03:44:33;;;;;;;23.73;3.83;;;6.80;99.90;;;;;;5028507;28;20495;-67
2022/10/11 03:46:58;;;;;;;27.17;4.43;;;6.90;99.90;;;;;;5029610;28;20033;-67
2022/10/11 03:49:24;;;;;;;29.02;4.03;;;6.80;99.90;;;;;;5024622;28;20471;-67
2022/10/11 03:51:49;;;;;;;11.77;3.75;;;6.80;99.90;;;;;;5031614;28;20438;-67
2022/10/11 03:54:15;;;;;;;12.88;3.85;;;6.80;99.90;;;;;;5023568;28;20025;-66
2022/10/11 03:56:40;;;;;;;19.75;4.97;;;6.80;99.90;;;;;;5029710;28;20044;-66
2022/10/11 03:59:06;;;;;;;21.73;4.70;;;6.80;99.90;;;;;;5030701;28;20033;-66
2022/10/11 04:01:36;;;;;;;19.58;5.43;;;6.70;99.90;;;;;;5025747;28;20041;-67
2022/10/11 04:04:03;;;;;;;18.15;3.45;;;6.60;99.90;;;;;;5028413;28;20034;-67
2022/10/11 04:06:28;;;;;;;22.35;4.03;;;6.60;99.90;;;;;;5025257;28;20038;-67
2022/10/11 04:08:54;;;;;;;18.98;3.30;;;6.50;99.90;;;;;;5030473;28;20022;-67
2022/10/11 04:11:20;;;;;;;16.40;3.17;;;6.40;99.90;;;;;;5027116;28;20030;-67
2022/10/11 04:13:45;;;;;;;11.88;4.05;;;6.50;99.90;;;;;;5018321;28;20026;-67
2022/10/11 04:16:11;;;;;;;20.05;3.40;;;6.50;99.90;;;;;;5020963;28;20113;-66
2022/10/11 04:18:36;;;;;;;14.85;3.90;;;6.60;99.90;;;;;;5022254;28;20411;-67
2022/10/11 04:21:02;;;;;;;13.63;4.25;;;6.50;99.90;;;;;;5029118;28;20044;-67
2022/10/11 04:23:30;;;;;;;12.88;4.35;;;6.60;99.90;;;;;;5028427;28;20117;-66
2022/10/11 04:25:55;;;;;;;12.93;3.50;;;6.60;99.90;;;;;;5025040;28;20034;-67
2022/10/11 04:28:21;;;;;;;13.02;4.07;;;6.60;99.90;;;;;;5027592;28;20487;-66
2022/10/11 04:30:47;;;;;;;12.93;3.63;;;6.60;99.90;;;;;;5029006;28;20061;-68
2022/10/11 04:33:13;;;;;;;15.00;3.40;;;6.60;99.90;;;;;;5027645;28;20056;-67
2022/10/11 04:35:38;;;;;;;17.88;3.55;;;6.50;99.90;;;;;;5025675;28;20574;-67
2022/10/11 04:38:04;;;;;;;13.45;3.65;;;6.50;99.90;;;;;;5025572;28;20104;-66
2022/10/11 04:40:30;;;;;;;9.20;3.45;;;6.40;99.90;;;;;;5028991;28;20021;-67
2022/10/11 04:42:56;;;;;;;19.67;4.10;;;6.40;99.90;;;;;;5029358;28;20495;-66
2022/10/11 04:45:21;;;;;;;15.98;3.50;;;6.30;99.90;;;;;;5030084;28;20491;-67
2022/10/11 04:47:47;;;;;;;13.98;4.20;;;6.30;99.90;;;;;;5026451;28;20034;-66
2022/10/11 04:50:13;;;;;;;19.90;4.25;;;6.30;99.90;;;;;;5026921;28;20492;-66
2022/10/11 04:52:38;;;;;;;20.95;3.53;;;6.30;99.90;;;;;;5027929;28;20025;-67
2022/10/11 04:55:05;;;;;;;11.52;3.40;;;6.30;99.90;;;;;;5030490;28;20492;-66
2022/10/11 04:57:30;;;;;;;16.02;3.33;;;6.30;99.90;;;;;;5022150;28;20045;-66
2022/10/11 04:59:56;;;;;;;11.95;3.55;;;6.30;99.90;;;;;;5029151;28;20025;-68
2022/10/11 05:02:22;;;;;;;16.83;3.58;;;6.30;99.90;;;;;;5027762;28;20041;-66
2022/10/11 05:04:47;;;;;;;10.65;3.53;;;6.40;99.90;;;;;;5025695;28;20030;-67
2022/10/11 05:07:13;;;;;;;12.80;3.58;;;6.40;99.90;;;;;;5023937;28;20021;-66
2022/10/11 05:09:38;;;;;;;8.07;3.03;;;6.50;99.90;;;;;;5028667;28;20037;-66
2022/10/11 05:12:04;;;;;;;10.48;2.63;;;6.50;99.90;;;;;;5025804;28;20030;-67
2022/10/11 05:14:30;;;;;;;10.75;4.10;;;6.60;99.90;;;;;;5027501;28;20032;-67
2022/10/11 05:16:55;;;;;;;8.90;3.95;;;6.60;99.90;;;;;;5027240;28;20025;-66
2022/10/11 05:19:21;;;;;;;9.70;3.53;;;6.50;99.90;;;;;;5028980;28;20434;-65
2022/10/11 05:21:46;;;;;;;10.55;4.00;;;6.60;99.90;;;;;;5027064;28;20478;-66
2022/10/11 05:24:12;;;;;;;14.88;4.13;;;6.60;99.90;;;;;;5021591;28;20413;-64
2022/10/11 05:26:37;;;;;;;14.82;3.63;;;6.60;99.90;;;;;;5030044;28;20033;-67
2022/10/11 05:29:03;;;;;;;11.90;3.72;;;6.60;99.90;;;;;;5022301;28;20026;-67
2022/10/11 05:31:28;;;;;;;13.02;3.50;;;6.70;99.90;;;;;;5027107;28;20034;-65
2022/10/11 05:33:54;;;;;;;21.38;4.13;;;6.70;99.90;;;;;;5021966;28;20032;-66
2022/10/11 05:36:19;;;;;;;19.13;4.53;;;6.80;99.90;;;;;;5029082;28;20098;-67
2022/10/11 05:38:45;;;;;;;12.27;4.65;;;6.70;99.90;;;;;;5018996;28;20034;-66
2022/10/11 05:41:13;;;;;;;18.70;4.78;;;6.80;99.90;;;;;;5018781;28;20171;-67
2022/10/11 05:43:39;;;;;;;21.13;7.28;;;6.90;99.90;;;;;;5025912;28;20091;-65
2022/10/11 05:46:05;;;;;;;19.10;5.00;;;7.00;99.90;;;;;;5027976;28;20487;-66
2022/10/11 05:48:30;;;;;;;19.33;5.05;;;7.00;99.90;;;;;;5030128;28;20021;-66
2022/10/11 05:51:01;;;;;;;27.33;6.35;;;7.00;99.90;;;;;;5029097;28;20029;-67
2022/10/11 05:53:28;;;;;;;26.85;5.55;;;7.00;99.90;;;;;;5025592;28;20064;-66
2022/10/11 05:55:54;;;;;;;22.05;5.50;;;7.10;99.90;;;;;;5027518;28;20477;-66
2022/10/11 05:58:19;;;;;;;39.70;7.47;;;7.10;99.90;;;;;;5028643;28;20065;-66
2022/10/11 06:00:45;;;;;;;32.97;6.13;;;7.20;99.90;;;;;;5028226;28;20545;-67
2022/10/11 06:03:12;;;;;;;53.45;6.45;;;7.20;99.90;;;;;;5031945;28;20067;-67
2022/10/11 06:05:38;;;;;;;44.38;8.85;;;7.30;99.90;;;;;;5032382;28;20038;-66
2022/10/11 06:08:05;;;;;;;28.77;6.38;;;7.40;99.90;;;;;;5030516;28;20033;-66
2022/10/11 06:10:31;;;;;;;46.42;8.07;;;7.50;99.90;;;;;;5033341;28;20029;-67
2022/10/11 06:12:56;;;;;;;46.80;7.60;;;7.60;99.90;;;;;;5023009;28;20495;-66
2022/10/11 06:15:22;;;;;;;50.42;8.05;;;7.80;99.90;;;;;;5029041;28;20037;-66
2022/10/11 06:17:48;;;;;;;43.80;8.13;;;7.90;99.90;;;;;;5032532;28;20037;-67
2022/10/11 06:20:13;;;;;;;52.85;7.97;;;8.00;99.90;;;;;;5031611;28;20040;-66
2022/10/11 06:22:39;;;;;;;75.30;10.98;;;8.10;99.90;;;;;;5029697;28;20076;-67
2022/10/11 06:25:05;;;;;;;68.50;10.45;;;8.10;99.90;;;;;;5067703;22;20036;-58
2022/10/11 06:27:31;;;;;;;59.15;9.20;;;8.10;99.90;;;;;;5047725;28;20021;-58
2022/10/11 06:29:57;;;;;;;49.67;8.93;;;8.20;99.90;;;;;;5052381;28;20028;-61
2022/10/11 06:32:22;;;;;;;71.55;8.95;;;8.20;99.90;;;;;;5051904;28;20025;-60
2022/10/11 06:34:48;;;;;;;61.22;9.48;;;8.30;99.90;;;;;;5051309;28;20568;-58
2022/10/11 06:37:13;;;;;;;74.88;10.80;;;8.30;99.90;;;;;;5051955;28;20047;-58
2022/10/11 06:39:39;;;;;;;60.85;11.00;;;8.40;99.90;;;;;;5051559;28;20362;-59
2022/10/11 06:42:05;;;;;;;82.63;12.45;;;8.40;99.90;;;;;;5051155;28;20606;-58
2022/10/11 06:44:30;;;;;;;71.95;11.18;;;8.40;99.90;;;;;;5049641;28;20041;-60
2022/10/11 06:46:56;;;;;;;79.10;11.18;;;8.50;99.90;;;;;;5049637;28;20041;-58
2022/10/11 06:49:21;;;;;;;57.83;10.50;;;8.50;99.90;;;;;;5052365;28;20025;-58
2022/10/11 06:51:47;;;;;;;74.10;12.85;;;8.50;99.90;;;;;;5052037;28;20029;-58
2022/10/11 06:54:12;;;;;;;75.40;11.85;;;8.50;99.90;;;;;;5049281;28;20029;-57
2022/10/11 06:56:39;;;;;;;73.85;14.02;;;8.60;99.90;;;;;;5049433;28;20144;-56
2022/10/11 06:59:05;;;;;;;70.70;12.00;;;8.60;99.90;;;;;;5044149;28;20090;-50
2022/10/11 07:01:31;;;;;;;73.60;11.00;;;8.70;99.90;;;;;;5049208;28;20438;-55
2022/10/11 07:03:57;;;;;;;70.78;12.98;;;8.80;99.90;;;;;;5046383;28;20021;-54
2022/10/11 07:06:25;;;;;;;72.53;15.40;;;8.80;99.90;;;;;;5040427;28;20067;-52
2022/10/11 07:08:52;;;;;;;83.95;15.98;;;8.90;99.90;;;;;;5048807;28;20088;-55
2022/10/11 07:11:21;;;;;;;75.82;18.38;;;8.90;99.90;;;;;;5050659;28;20079;-55
2022/10/11 07:14:13;;;;;;;69.65;18.73;;;8.90;99.90;;;;;;5045706;28;20025;-52
2022/10/11 07:16:38;;;;;;;73.55;23.15;;;8.90;99.90;;;;;;5049504;28;20532;-53
2022/10/11 07:19:06;;;;;;;68.95;20.50;;;9.00;99.90;;;;;;5049391;28;20056;-53
2022/10/11 07:21:33;;;;;;;86.60;23.92;;;9.10;99.90;;;;;;5050424;28;20465;-55
2022/10/11 07:23:59;;;;;;;82.03;19.45;;;9.10;99.90;;;;;;5047110;28;20032;-56
2022/10/11 07:26:25;;;;;;;82.85;24.65;;;9.20;99.90;;;;;;5049592;28;20098;-52
2022/10/11 07:28:51;;;;;;;77.63;19.60;;;9.20;99.90;;;;;;5049657;28;20025;-51
2022/10/11 07:31:19;;;;;;;72.05;21.98;;;9.30;99.90;;;;;;5048870;28;20059;-56
2022/10/11 07:33:45;;;;;;;78.50;21.90;;;9.30;99.90;;;;;;5045879;28;20024;-53
2022/10/11 07:36:11;;;;;;;84.47;23.67;;;9.40;99.90;;;;;;5049392;28;20041;-54
2022/10/11 07:38:45;;;;;;;80.20;22.13;;;9.40;99.90;;;;;;5050132;28;20031;-56
2022/10/11 07:41:10;;;;;;;73.93;22.13;;;9.40;99.90;;;;;;5050727;28;20024;-56
2022/10/11 07:43:37;;;;;;;85.65;22.88;;;9.40;99.90;;;;;;5043120;28;20029;-54
2022/10/11 07:46:03;;;;;;;79.38;22.25;;;9.40;99.90;;;;;;5043707;28;20025;-55
2022/10/11 07:48:33;;;;;;;82.13;24.42;;;9.40;99.90;;;;;;5046603;28;20059;-54
2022/10/11 07:51:04;;;;;;;77.63;22.70;;;9.50;99.90;;;;;;5039477;28;20032;-58
2022/10/11 07:53:29;;;;;;;85.78;25.35;;;9.20;99.90;;;;;;5041640;28;20599;-54
2022/10/11 07:55:59;;;;;;;98.40;28.05;;;9.20;99.90;;;;;;5046868;28;20017;-54
2022/10/11 07:58:24;;;;;;;95.10;26.48;;;9.30;99.90;;;;;;5043372;28;20040;-52
2022/10/11 08:00:53;;;;;;;82.40;24.40;;;9.30;99.90;;;;;;5049892;28;20387;-56
2022/10/11 08:03:18;;;;;;;94.95;27.80;;;9.30;99.90;;;;;;5049425;28;20094;-51
2022/10/11 08:05:44;;;;;;;95.07;28.67;;;9.40;99.90;;;;;;5051022;28;20029;-56
2022/10/11 08:08:10;;;;;;;96.47;27.02;;;9.50;99.90;;;;;;5047052;28;20021;-54
2022/10/11 08:10:37;;;;;;;82.35;26.17;;;9.60;99.90;;;;;;5046337;28;20170;-52
2022/10/11 08:13:03;;;;;;;102.05;26.52;;;9.50;99.90;;;;;;5047522;28;20043;-53
2022/10/11 08:15:28;;;;;;;105.93;28.92;;;9.60;99.90;;;;;;5048180;28;20838;-52
2022/10/11 08:17:54;;;;;;;85.97;25.98;;;9.60;99.90;;;;;;5048261;28;20102;-51
2022/10/11 08:20:19;;;;;;;99.43;27.58;;;9.60;99.90;;;;;;5041581;28;20629;-53
2022/10/11 08:22:45;;;;;;;90.75;25.52;;;9.70;99.90;;;;;;5045364;28;20528;-55
2022/10/11 08:25:11;;;;;;;96.25;28.42;;;9.80;99.90;;;;;;5046943;28;20077;-51
2022/10/11 08:27:36;;;;;;;102.18;28.33;;;9.60;99.90;;;;;;5044842;28;20032;-53
2022/10/11 08:30:03;;;;;;;108.65;29.58;;;9.60;99.90;;;;;;5041014;28;20025;-59
2022/10/11 08:32:29;;;;;;;110.22;28.38;;;9.60;99.90;;;;;;5038605;28;20033;-56
2022/10/11 08:34:54;;;;;;;110.15;29.90;;;9.70;99.90;;;;;;5044396;28;20040;-53
2022/10/11 08:37:20;;;;;;;122.60;33.45;;;9.70;99.90;;;;;;5044310;28;20037;-58
2022/10/11 08:39:45;;;;;;;103.97;29.90;;;9.90;99.90;;;;;;5044902;28;20040;-55
2022/10/11 08:42:31;;;;;;;124.82;32.03;;;10.00;99.90;;;;;;5038185;28;20166;-57
2022/10/11 08:45:01;;;;;;;124.75;32.97;;;10.00;99.90;;;;;;5043725;28;20075;-54
2022/10/11 08:47:38;;;;;;;113.53;32.38;;;10.00;99.90;;;;;;5039750;28;20036;-60
2022/10/11 08:50:05;;;;;;;112.93;33.83;;;10.00;99.90;;;;;;5042013;28;20021;-54
2022/10/11 08:52:58;;;;;;;113.20;31.10;;;9.90;99.90;;;;;;5036479;28;20029;-59
2022/10/11 08:55:40;;;;;;;107.70;31.17;;;9.90;99.90;;;;;;5039945;28;20025;-55
2022/10/11 08:58:10;;;;;;;123.80;33.00;;;10.10;99.90;;;;;;5044938;28;20032;-56
2022/10/11 09:00:37;;;;;;;105.18;30.90;;;10.10;99.90;;;;;;5043502;28;20406;-56
2022/10/11 09:03:40;;;;;;;120.30;32.70;;;10.20;99.90;;;;;;5046464;28;20112;-53
2022/10/11 09:06:24;;;;;;;122.78;34.80;;;10.10;99.90;;;;;;5035282;28;20028;-55
2022/10/11 09:09:23;;;;;;;123.75;34.00;;;10.20;99.90;;;;;;5045788;28;20650;-55
2022/10/11 09:12:27;;;;;;;120.88;33.85;;;10.30;99.90;;;;;;5039707;28;20117;-54
2022/10/11 09:15:15;;;;;;;114.55;33.47;;;10.40;99.90;;;;;;5017648;28;20045;-52
2022/10/11 09:17:51;;;;;;;103.10;31.30;;;10.40;99.90;;;;;;5044847;28;20037;-56
2022/10/11 09:20:40;;;;;;;105.15;32.50;;;10.60;99.90;;;;;;5048283;28;20052;-52
2022/10/11 09:23:20;;;;;;;118.53;32.30;;;10.70;99.90;;;;;;5043031;28;20493;-54
2022/10/11 09:25:54;;;;;;;109.75;33.80;;;10.60;99.90;;;;;;5044044;28;20029;-52
2022/10/11 09:28:29;;;;;;;112.30;34.08;;;10.60;99.90;;;;;;5040764;28;20053;-55
2022/10/11 09:30:57;;;;;;;119.93;35.22;;;10.60;99.90;;;;;;5042802;28;20518;-55
2022/10/11 09:33:35;;;;;;;117.38;33.53;;;10.60;99.90;;;;;;5048779;28;20112;-53
2022/10/11 09:36:24;;;;;;;112.60;31.33;;;10.70;99.90;;;;;;5042156;28;20025;-53
2022/10/11 09:39:10;;;;;;;121.10;31.50;;;10.70;99.90;;;;;;5038219;28;20040;-51
2022/10/11 09:41:52;;;;;;;114.15;36.08;;;10.80;99.90;;;;;;5039535;28;20565;-54
2022/10/11 09:44:28;;;;;;;113.28;32.00;;;10.90;99.90;;;;;;5041098;28;20106;-57
2022/10/11 09:46:55;;;;;;;112.57;34.78;;;10.90;99.90;;;;;;5041611;28;20441;-54
2022/10/11 09:49:27;;;;;;;109.70;31.45;;;11.00;99.90;;;;;;5042982;28;20028;-57
2022/10/11 09:51:56;;;;;;;103.07;32.92;;;10.90;99.90;;;;;;5042796;28;20033;-56
2022/10/11 09:54:40;;;;;;;103.70;31.30;;;11.10;99.90;;;;;;5039662;28;20029;-53
2022/10/11 09:57:19;;;;;;;108.97;34.78;;;11.10;99.90;;;;;;5040792;28;20053;-56
2022/10/11 10:00:15;;;;;;;102.13;32.88;;;11.30;99.90;;;;;;5040856;28;20039;-53
2022/10/11 10:02:49;;;;;;;112.75;33.50;;;11.40;99.90;;;;;;5046215;28;20395;-58
2022/10/11 10:05:25;;;;;;;123.60;34.58;;;11.60;99.90;;;;;;5044422;28;20057;-56
2022/10/11 10:08:05;;;;;;;99.60;33.53;;;11.70;99.90;;;;;;5046043;28;20024;-57
2022/10/11 10:10:39;;;;;;;105.82;31.77;;;11.70;99.90;;;;;;5040513;28;20159;-61
2022/10/11 10:13:43;;;;;;;97.55;32.22;;;11.50;99.90;;;;;;5045211;28;20483;-62
2022/10/11 10:16:41;;;;;;;104.47;32.38;;;11.80;99.90;;;;;;5045444;28;20136;-62
2022/10/11 10:19:22;;;;;;;97.22;31.60;;;12.10;99.90;;;;;;5024979;28;20470;-62
2022/10/11 10:21:52;;;;;;;88.97;29.48;;;12.30;99.90;;;;;;5038256;28;20075;-61
2022/10/11 10:24:19;;;;;;;101.57;31.48;;;12.30;99.90;;;;;;5040914;28;20028;-61
2022/10/11 10:27:07;;;;;;;98.88;30.77;;;11.90;99.90;;;;;;5039170;28;20368;-62
2022/10/11 10:29:34;;;;;;;89.43;30.00;;;12.00;99.90;;;;;;5046459;28;20093;-62
2022/10/11 10:32:09;;;;;;;94.32;31.50;;;12.20;99.90;;;;;;5047112;28;20013;-62
2022/10/11 10:34:39;;;;;;;86.80;28.23;;;12.40;99.90;;;;;;5044854;28;20650;-61
2022/10/11 10:37:19;;;;;;;83.22;28.52;;;12.60;99.90;;;;;;5036087;28;20044;-62
2022/10/11 10:40:01;;;;;;;86.22;27.75;;;12.70;99.90;;;;;;5046046;28;20021;-61
2022/10/11 10:42:27;;;;;;;89.63;27.80;;;12.90;99.90;;;;;;5045235;28;20037;-59
2022/10/11 10:44:55;;;;;;;86.40;26.30;;;12.80;99.90;;;;;;5043288;28;20033;-61
2022/10/11 10:47:51;;;;;;;83.70;27.02;;;12.90;99.90;;;;;;5046432;28;20106;-61
2022/10/11 10:50:46;;;;;;;87.75;30.40;;;13.10;99.90;;;;;;5050433;28;20029;-61
2022/10/11 10:53:39;;;;;;;84.63;25.55;;;12.90;99.90;;;;;;5046145;28;20039;-62
2022/10/11 10:56:09;;;;;;;79.72;26.02;;;12.80;99.90;;;;;;5048316;28;20100;-61
2022/10/11 10:58:52;;;;;;;86.43;25.45;;;13.00;99.90;;;;;;5048120;28;20071;-62
2022/10/11 11:01:24;;;;;;;65.95;23.05;;;13.30;99.90;;;;;;5048259;28;20037;-59
2022/10/11 11:04:24;;;;;;;79.35;23.38;;;13.60;99.90;;;;;;5050920;28;20021;-59
2022/10/11 11:06:58;;;;;;;65.03;21.50;;;13.60;99.90;;;;;;5037010;28;20040;-59
2022/10/11 11:09:55;;;;;;;57.92;18.73;;;13.80;99.90;;;;;;5049997;28;20025;-62
2022/10/11 11:12:31;;;;;;;59.97;20.20;;;13.90;99.90;;;;;;5012152;28;20037;-61
2022/10/11 11:15:24;;;;;;;55.95;19.52;;;13.80;99.90;;;;;;5048010;28;20040;-61
2022/10/11 11:17:54;;;;;;;64.43;21.17;;;13.70;99.90;;;;;;5041543;28;20028;-61
2022/10/11 11:20:30;;;;;;;62.33;20.73;;;13.40;99.90;;;;;;5044738;28;20033;-63
2022/10/11 11:23:11;;;;;;;53.45;18.33;;;13.30;99.90;;;;;;5043320;28;20487;-62
2022/10/11 11:26:27;;;;;;;59.45;20.77;;;13.30;99.90;;;;;;5042732;28;20115;-63
2022/10/11 11:29:20;;;;;;;63.05;17.48;;;13.40;99.90;;;;;;4965211;28;20031;-62
2022/10/11 11:31:59;;;;;;;48.42;16.40;;;13.30;99.90;;;;;;4954984;28;20117;-62
2022/10/11 11:34:40;;;;;;;54.33;18.38;;;13.50;99.90;;;;;;5033371;28;20109;-61
2022/10/11 11:37:27;;;;;;;55.28;16.88;;;13.80;99.90;;;;;;5047575;28;20025;-61
2022/10/11 11:40:07;;;;;;;42.83;14.55;;;14.30;99.90;;;;;;5045094;28;20083;-61
2022/10/11 11:42:45;;;;;;;41.90;14.73;;;14.60;99.90;;;;;;5050382;28;20040;-61
2022/10/11 11:45:43;;;;;;;41.20;13.38;;;14.80;99.90;;;;;;5046156;28;20172;-62
2022/10/11 11:48:20;;;;;;;52.92;15.23;;;14.90;99.90;;;;;;5038801;28;20554;-62
2022/10/11 11:51:02;;;;;;;48.45;14.88;;;15.10;99.90;;;;;;5050558;28;20104;-62
2022/10/11 11:53:55;;;;;;;48.35;13.00;;;14.80;99.90;;;;;;5048524;28;20037;-62
2022/10/11 11:56:46;;;;;;;41.58;13.10;;;14.30;99.90;;;;;;5056584;28;20039;-62
2022/10/11 11:59:43;;;;;;;35.30;12.98;;;14.20;99.90;;;;;;5030960;28;20041;-62
2022/10/11 12:02:34;;;;;;;42.70;12.75;;;13.80;99.90;;;;;;5043036;28;20386;-61
2022/10/11 12:05:00;;;;;;;26.65;11.25;;;14.40;99.90;;;;;;5046457;28;20043;-62
2022/10/11 12:07:28;;;;;;;24.90;9.93;;;15.00;99.90;;;;;;5049302;28;20371;-62
2022/10/11 12:10:22;;;;;;;31.75;9.05;;;15.40;99.90;;;;;;5040033;28;20029;-62
2022/10/11 12:12:59;;;;;;;32.47;10.25;;;15.60;99.90;;;;;;5048353;28;20025;-62
2022/10/11 12:15:26;;;;;;;25.02;8.38;;;15.80;99.90;;;;;;5044160;28;20032;-61
2022/10/11 12:17:57;;;;;;;29.30;10.05;;;15.90;99.90;;;;;;5040461;28;20111;-62
2022/10/11 12:20:27;;;;;;;29.17;8.18;;;16.20;99.90;;;;;;5045576;28;20063;-62
2022/10/11 12:22:57;;;;;;;29.02;9.52;;;16.30;99.90;;;;;;5045332;28;20094;-62
2022/10/11 12:25:32;;;;;;;28.13;9.23;;;15.80;99.90;;;;;;5048211;22;20160;-61
2022/10/11 12:28:00;;;;;;;22.65;7.40;;;16.00;99.90;;;;;;4999460;28;20030;-56
2022/10/11 12:30:47;;;;;;;35.38;7.13;;;16.50;99.90;;;;;;5000254;28;20034;-56
2022/10/11 12:33:22;;;;;;;20.80;6.40;;;16.90;99.90;;;;;;5004900;28;20149;-58
2022/10/11 12:35:53;;;;;;;26.27;5.88;;;16.70;99.90;;;;;;4994897;28;20488;-58
2022/10/11 12:38:33;;;;;;;23.90;6.47;;;17.10;99.90;;;;;;4984971;28;20642;-59
2022/10/11 12:41:36;;;;;;;26.73;6.75;;;17.40;99.90;;;;;;4984180;28;20507;-57
2022/10/11 12:44:21;;;;;;;21.30;5.88;;;17.40;99.90;;;;;;4984984;28;20105;-57
2022/10/11 12:46:49;;;;;;;30.08;5.90;;;17.20;99.90;;;;;;4981811;28;20045;-58
2022/10/11 12:49:31;;;;;;;26.20;5.07;;;17.40;99.90;;;;;;4987932;28;20027;-57
2022/10/11 12:52:14;;;;;;;20.02;4.53;;;17.30;99.90;;;;;;4982827;28;20073;-56
2022/10/11 12:55:02;;;;;;;24.17;5.82;;;16.50;99.90;;;;;;4982766;28;20451;-59
2022/10/11 12:57:36;;;;;;;20.40;5.95;;;17.00;99.90;;;;;;4980155;28;20026;-57
2022/10/11 13:00:27;;;;;;;16.85;4.07;;;17.00;99.90;;;;;;4984093;28;20022;-54
2022/10/11 13:03:01;;;;;;;13.90;3.25;;;16.80;99.90;;;;;;4986022;28;20357;-58